createdAt,value
2022-11-17T00:01:29.538Z,100198.34
2022-11-17T00:03:56.952Z,100178.41
2022-11-17T00:06:24.416Z,100188.13
2022-11-17T00:08:53.652Z,100193.38
2022-11-17T00:11:22.408Z,100183.19
2022-11-17T00:14:07.380Z,100195.97
2022-11-17T00:16:34.785Z,100192.28
2022-11-17T00:19:19.522Z,100174.72
2022-11-17T00:21:46.894Z,100179.50
2022-11-17T00:24:17.240Z,100173.22
2022-11-17T00:27:00.013Z,100177.38
2022-11-17T00:29:27.379Z,100170.44
2022-11-17T00:32:13.002Z,100174.41
2022-11-17T00:34:40.724Z,100176.16
2022-11-17T00:37:09.507Z,100173.16
2022-11-17T00:39:37.387Z,100177.03
2022-11-17T00:42:06.367Z,100163.47
2022-11-17T00:44:33.739Z,100162.44
2022-11-17T00:47:01.171Z,100176.81
2022-11-17T00:49:28.607Z,100169.03
2022-11-17T00:51:57.803Z,100151.44
2022-11-17T00:54:25.387Z,100162.59
2022-11-17T00:56:52.899Z,100163.13
2022-11-17T00:59:21.698Z,100165.47
2022-11-17T01:01:49.220Z,100170.72
2022-11-17T01:04:17.089Z,100162.56
2022-11-17T01:06:46.315Z,100155.19
2022-11-17T01:09:16.775Z,100158.94
2022-11-17T01:11:44.958Z,100166.81
2022-11-17T01:14:14.106Z,100162.63
2022-11-17T01:16:43.049Z,100162.56
2022-11-17T01:19:12.830Z,100179.28
2022-11-17T01:21:40.284Z,100149.72
2022-11-17T01:24:08.368Z,100157.31
2022-11-17T01:26:37.416Z,100153.78
2022-11-17T01:29:06.068Z,100146.28
2022-11-17T01:31:35.836Z,100149.16
2022-11-17T01:34:04.649Z,100147.38
2022-11-17T01:36:56.005Z,100138.13
2022-11-17T01:39:24.141Z,100150.19
2022-11-17T01:41:51.957Z,100145.22
2022-11-17T01:44:54.905Z,100141.66
2022-11-17T01:47:27.010Z,100118.22
2022-11-17T01:50:01.455Z,100125.03
2022-11-17T01:52:32.314Z,100131.88
2022-11-17T01:55:01.400Z,100134.28
2022-11-17T01:57:33.939Z,100138.25
2022-11-17T02:00:05.244Z,100126.28
2022-11-17T02:02:34.076Z,100130.06
2022-11-17T02:05:11.455Z,100133.13
2022-11-17T02:07:41.132Z,100142.25
2022-11-17T02:10:09.288Z,100133.13
2022-11-17T02:12:37.722Z,100131.84
2022-11-17T02:15:06.561Z,100138.25
2022-11-17T02:17:37.605Z,100142.66
2022-11-17T02:20:11.281Z,100132.84
2022-11-17T02:23:23.008Z,100132.06
2022-11-17T02:26:09.620Z,100128.28
2022-11-17T02:28:43.546Z,100123.06
2022-11-17T02:31:22.055Z,100126.72
2022-11-17T02:37:43.170Z,100133.13
2022-11-17T02:40:14.788Z,100118.66
2022-11-17T02:43:01.844Z,100116.63
2022-11-17T02:45:37.157Z,100113.13
2022-11-17T02:48:08.261Z,100107.59
2022-11-17T02:50:35.963Z,100108.88
2022-11-17T02:53:04.830Z,100102.50
2022-11-17T02:55:35.766Z,100094.50
2022-11-17T02:58:03.148Z,100095.88
2022-11-17T03:00:35.035Z,100088.59
2022-11-17T03:03:20.725Z,100093.16
2022-11-17T03:05:58.170Z,100088.38
2022-11-17T03:08:33.152Z,100090.03
2022-11-17T03:11:03.568Z,100087.91
2022-11-17T03:13:43.086Z,100088.56
2022-11-17T03:16:20.924Z,100084.56
2022-11-17T03:18:59.305Z,100080.53
2022-11-17T03:21:30.029Z,100074.31
2022-11-17T03:24:04.954Z,100096.06
2022-11-17T03:26:35.852Z,100083.31
2022-11-17T03:29:08.539Z,100078.28
2022-11-17T03:31:39.299Z,100072.28
2022-11-17T03:34:12.473Z,100082.47
2022-11-17T03:36:45.209Z,100079.59
2022-11-17T03:39:16.622Z,100085.03
2022-11-17T03:41:48.906Z,100091.28
2022-11-17T03:44:19.426Z,100087.22
2022-11-17T03:46:50.137Z,100078.25
2022-11-17T03:49:24.542Z,100070.97
2022-11-17T03:51:52.306Z,100067.59
2022-11-17T03:54:19.857Z,100066.44
2022-11-17T03:56:54.643Z,100069.75
2022-11-17T03:59:28.070Z,100070.88
2022-11-17T04:01:57.030Z,100068.53
2022-11-17T04:04:25.013Z,100082.34
2022-11-17T04:06:53.368Z,100065.16
2022-11-17T04:09:24.381Z,100064.31
2022-11-17T04:12:09.647Z,100070.38
2022-11-17T04:14:54.470Z,100067.06
2022-11-17T04:17:23.530Z,100064.44
2022-11-17T04:19:50.920Z,100056.34
2022-11-17T04:22:18.313Z,100053.41
2022-11-17T04:24:45.752Z,100063.19
2022-11-17T04:27:30.777Z,100053.47
2022-11-17T04:29:58.173Z,100056.75
2022-11-17T04:32:26.863Z,100045.34
2022-11-17T04:34:54.249Z,100049.72
2022-11-17T04:37:22.832Z,100049.19
2022-11-17T04:39:50.474Z,100041.09
2022-11-17T04:42:17.005Z,100045.59
2022-11-17T04:44:44.401Z,100042.91
2022-11-17T04:47:11.767Z,100041.03
2022-11-17T04:49:40.506Z,100034.97
2022-11-17T04:52:07.913Z,100037.94
2022-11-17T04:54:35.312Z,100037.00
2022-11-17T04:57:02.701Z,100040.72
2022-11-17T04:59:30.100Z,100040.44
2022-11-17T05:02:02.512Z,100037.69
2022-11-17T05:04:50.262Z,100027.59
2022-11-17T05:07:19.021Z,100031.44
2022-11-17T05:09:46.440Z,100036.78
2022-11-17T05:12:31.355Z,100032.75
2022-11-17T05:14:58.710Z,100035.03
2022-11-17T05:17:25.156Z,100030.69
2022-11-17T05:19:52.589Z,100017.19
2022-11-17T05:22:41.844Z,100025.41
2022-11-17T05:25:10.228Z,100021.84
2022-11-17T05:27:38.081Z,100029.34
2022-11-17T05:30:08.128Z,100022.81
2022-11-17T05:32:35.641Z,100012.88
2022-11-17T05:35:03.040Z,100001.41
2022-11-17T05:37:31.750Z,100004.69
2022-11-17T05:39:59.117Z,100001.97
2022-11-17T05:42:26.537Z,100000.88
2022-11-17T05:44:53.898Z,99997.06
2022-11-17T05:47:21.284Z,99996.28
2022-11-17T05:49:48.673Z,99994.38
2022-11-17T05:52:16.270Z,99994.28
2022-11-17T05:54:45.137Z,99994.91
2022-11-17T05:57:17.750Z,99994.88
2022-11-17T05:59:50.315Z,100000.72
2022-11-17T06:02:24.510Z,100001.50
2022-11-17T06:04:52.470Z,100003.03
2022-11-17T06:07:20.567Z,99995.31
2022-11-17T06:09:49.460Z,99999.16
2022-11-17T06:12:17.072Z,100004.22
2022-11-17T06:14:44.465Z,100011.22
2022-11-17T06:17:22.138Z,99993.78
2022-11-17T06:19:56.383Z,99988.19
2022-11-17T06:22:26.170Z,99993.53
2022-11-17T06:24:55.700Z,100002.00
2022-11-17T06:27:23.480Z,99996.81
2022-11-17T06:29:51.291Z,99996.50
2022-11-17T06:32:20.802Z,99983.31
2022-11-17T06:34:55.612Z,99990.44
2022-11-17T06:37:23.988Z,99990.09
2022-11-17T06:39:51.619Z,99980.47
2022-11-17T06:42:40.326Z,99984.97
2022-11-17T06:45:08.964Z,99974.94
2022-11-17T06:47:36.351Z,99978.03
2022-11-17T06:50:04.070Z,99973.47
2022-11-17T06:52:31.477Z,99977.78
2022-11-17T06:54:58.906Z,99973.94
2022-11-17T06:57:27.606Z,99970.28
2022-11-17T06:59:55.036Z,99968.50
2022-11-17T07:02:22.482Z,99964.56
2022-11-17T07:04:49.870Z,99956.06
2022-11-17T07:07:17.293Z,99959.19
2022-11-17T07:09:44.713Z,99961.91
2022-11-17T07:12:12.092Z,99948.56
2022-11-17T07:14:40.872Z,99950.78
2022-11-17T07:17:08.538Z,99950.75
2022-11-17T07:19:35.939Z,99948.88
2022-11-17T07:22:04.597Z,99952.66
2022-11-17T07:24:32.057Z,99949.25
2022-11-17T07:26:59.473Z,99954.59
2022-11-17T07:29:28.783Z,99950.56
2022-11-17T07:31:57.494Z,99957.38
2022-11-17T07:34:24.889Z,99959.16
2022-11-17T07:36:52.279Z,99946.31
2022-11-17T07:39:21.743Z,99953.88
2022-11-17T07:41:49.472Z,99963.34
2022-11-17T07:44:16.860Z,99959.88
2022-11-17T07:46:44.260Z,99963.28
2022-11-17T07:49:12.969Z,99973.19
2022-11-17T07:51:40.398Z,99950.56
2022-11-17T07:54:07.898Z,99967.56
2022-11-17T07:56:35.513Z,99958.66
2022-11-17T07:59:02.880Z,99959.78
2022-11-17T08:01:30.502Z,99960.22
2022-11-17T08:03:58.446Z,99955.19
2022-11-17T08:06:27.324Z,99963.31
2022-11-17T08:08:54.763Z,99952.88
2022-11-17T08:11:22.307Z,99950.69
2022-11-17T08:13:50.835Z,99959.84
2022-11-17T08:16:18.744Z,99944.94
2022-11-17T08:18:51.806Z,99936.97
2022-11-17T08:21:19.662Z,99943.69
2022-11-17T08:23:51.134Z,99932.06
2022-11-17T08:26:19.182Z,99938.91
2022-11-17T08:28:46.581Z,99933.84
2022-11-17T08:31:14.444Z,99930.81
2022-11-17T08:33:41.813Z,99933.97
2022-11-17T08:36:09.647Z,99940.25
2022-11-17T08:38:38.618Z,99926.53
2022-11-17T08:41:09.318Z,99928.28
2022-11-17T08:43:36.738Z,99928.56
2022-11-17T08:46:04.409Z,99922.38
2022-11-17T08:48:33.141Z,99921.16
2022-11-17T08:51:06.352Z,99921.50
2022-11-17T08:53:33.984Z,99910.63
2022-11-17T08:56:01.661Z,99930.66
2022-11-17T08:58:30.390Z,99925.16
2022-11-17T09:01:03.844Z,99918.06
2022-11-17T09:03:32.662Z,99928.75
2022-11-17T09:06:02.080Z,99932.81
2022-11-17T09:08:45.152Z,99926.28
2022-11-17T09:11:17.094Z,99930.06
2022-11-17T09:13:46.742Z,99926.25
2022-11-17T09:16:15.384Z,99932.81
2022-11-17T09:18:43.007Z,99932.38
2022-11-17T09:21:13.419Z,99941.06
2022-11-17T09:23:40.897Z,99939.69
2022-11-17T09:26:10.286Z,99947.66
2022-11-17T09:28:38.023Z,99954.81
2022-11-17T09:31:11.812Z,99938.25
2022-11-17T09:33:39.733Z,99938.34
2022-11-17T09:36:08.259Z,99932.66
2022-11-17T09:38:36.190Z,99936.66
2022-11-17T09:41:12.823Z,99939.91
2022-11-17T09:43:45.987Z,99929.63
2022-11-17T09:46:21.505Z,99923.56
2022-11-17T09:48:54.660Z,99927.94
2022-11-17T09:51:26.097Z,99923.44
2022-11-17T09:53:58.378Z,99920.97
2022-11-17T09:56:28.073Z,99917.41
2022-11-17T09:58:59.715Z,99928.78
2022-11-17T10:01:29.926Z,99925.72
2022-11-17T10:04:00.023Z,99935.19
2022-11-17T10:06:29.714Z,99930.94
2022-11-17T10:09:02.802Z,99934.09
2022-11-17T10:11:35.095Z,99933.47
2022-11-17T10:14:04.953Z,99927.84
2022-11-17T10:16:33.710Z,99929.75
2022-11-17T10:19:03.304Z,99921.78
2022-11-17T10:21:31.325Z,99919.81
2022-11-17T10:24:00.389Z,99923.34
2022-11-17T10:26:28.079Z,99913.78
2022-11-17T10:29:09.052Z,99908.03
2022-11-17T10:31:46.152Z,99908.91
2022-11-17T10:34:37.065Z,99907.28
2022-11-17T10:37:28.182Z,99893.56
2022-11-17T10:40:23.658Z,99905.38
2022-11-17T10:43:00.729Z,99890.72
2022-11-17T10:45:28.987Z,99891.50
2022-11-17T10:48:11.541Z,99893.28
2022-11-17T10:50:38.961Z,99872.66
2022-11-17T10:53:30.464Z,99894.91
2022-11-17T10:56:04.806Z,99883.13
2022-11-17T10:58:33.803Z,99883.28
2022-11-17T11:01:04.009Z,99878.44
2022-11-17T11:03:34.991Z,99876.13
2022-11-17T11:06:10.769Z,99866.84
2022-11-17T11:08:50.912Z,99856.16
2022-11-17T11:11:35.896Z,99848.56
2022-11-17T11:14:13.107Z,99856.88
2022-11-17T11:16:46.682Z,99853.38
2022-11-17T11:19:19.844Z,99847.88
2022-11-17T11:22:06.064Z,99849.94
2022-11-17T11:24:42.690Z,99849.06
2022-11-17T11:27:29.131Z,99848.53
2022-11-17T11:30:03.272Z,99848.47
2022-11-17T11:32:39.950Z,99846.47
2022-11-17T11:35:34.702Z,99843.66
2022-11-17T11:38:16.516Z,99845.16
2022-11-17T11:40:52.776Z,99835.00
2022-11-17T11:43:33.898Z,99842.47
2022-11-17T11:46:08.985Z,99833.16
2022-11-17T11:48:40.808Z,99836.63
2022-11-17T11:51:15.716Z,99826.13
2022-11-17T11:53:50.583Z,99830.56
2022-11-17T11:56:21.927Z,99831.69
2022-11-17T11:58:55.038Z,99821.34
2022-11-17T12:01:24.527Z,99829.34
2022-11-17T12:03:59.065Z,99828.63
2022-11-17T12:06:43.317Z,99817.44
2022-11-17T12:09:26.105Z,99819.84
2022-11-17T12:12:11.609Z,99816.50
2022-11-17T12:14:39.514Z,99809.56
2022-11-17T12:17:23.191Z,99822.00
2022-11-17T12:19:57.215Z,99812.50
2022-11-17T12:22:50.250Z,99823.72
2022-11-17T12:25:20.120Z,99817.03
2022-11-17T12:27:49.611Z,99816.75
2022-11-17T12:30:55.757Z,99831.88
2022-11-17T12:33:24.379Z,99823.91
2022-11-17T12:36:31.075Z,99821.34
2022-11-17T12:39:01.441Z,99816.66
2022-11-17T12:42:06.502Z,99822.88
2022-11-17T12:44:59.144Z,99815.63
2022-11-17T12:47:29.017Z,99818.81
2022-11-17T12:50:33.039Z,99816.22
2022-11-17T12:53:24.297Z,99816.91
2022-11-17T12:56:08.757Z,99819.75
2022-11-17T12:58:46.845Z,99821.41
2022-11-17T13:01:21.102Z,99816.03
2022-11-17T13:03:55.786Z,99813.66
2022-11-17T13:06:38.491Z,99805.78
2022-11-17T13:09:07.429Z,99804.72
2022-11-17T13:11:36.453Z,99814.38
2022-11-17T13:14:09.443Z,99807.75
2022-11-17T13:16:38.407Z,99807.09
2022-11-17T13:19:30.573Z,99805.09
2022-11-17T13:22:00.994Z,99798.09
2022-11-17T13:24:34.012Z,99802.00
2022-11-17T13:27:07.208Z,99802.69
2022-11-17T13:29:35.230Z,99795.88
2022-11-17T13:32:12.575Z,99795.31
2022-11-17T13:34:47.505Z,99801.31
2022-11-17T13:37:18.001Z,99799.81
2022-11-17T13:39:59.503Z,99792.22
2022-11-17T13:42:32.125Z,99802.38
2022-11-17T13:45:02.815Z,99796.34
2022-11-17T13:47:46.360Z,99795.13
2022-11-17T13:50:37.981Z,99798.78
2022-11-17T13:53:19.403Z,99799.84
2022-11-17T13:55:48.009Z,99796.91
2022-11-17T13:58:28.412Z,99792.81
2022-11-17T14:00:57.961Z,99790.41
2022-11-17T14:03:44.353Z,99793.50
2022-11-17T14:06:13.706Z,99795.22
2022-11-17T14:08:42.783Z,99791.25
2022-11-17T14:11:21.121Z,99795.19
2022-11-17T14:13:51.935Z,99786.81
2022-11-17T14:16:27.773Z,99790.06
2022-11-17T14:19:00.987Z,99787.31
2022-11-17T14:21:29.253Z,99778.72
2022-11-17T14:24:11.090Z,99791.56
2022-11-17T14:26:44.431Z,99786.06
2022-11-17T14:29:14.225Z,99787.00
2022-11-17T14:31:41.709Z,99787.84
2022-11-17T14:34:09.111Z,99788.38
2022-11-17T14:36:37.788Z,99793.03
2022-11-17T14:39:12.154Z,99786.63
2022-11-17T14:41:40.783Z,99793.25
2022-11-17T14:44:08.344Z,99786.78
2022-11-17T14:46:37.339Z,99795.75
2022-11-17T14:49:05.478Z,99796.06
2022-11-17T14:51:33.515Z,99799.97
2022-11-17T14:54:01.509Z,99793.41
2022-11-17T14:56:28.860Z,99791.72
2022-11-17T14:58:59.000Z,99788.63
2022-11-17T15:01:30.323Z,99797.66
2022-11-17T15:04:15.356Z,99794.38
2022-11-17T15:06:48.819Z,99789.00
2022-11-17T15:09:16.569Z,99803.34
2022-11-17T15:11:44.019Z,99792.06
2022-11-17T15:14:11.728Z,99784.66
2022-11-17T15:16:39.130Z,99793.78
2022-11-17T15:19:07.874Z,99789.22
2022-11-17T15:21:35.286Z,99788.97
2022-11-17T15:24:03.342Z,99796.91
2022-11-17T15:26:30.746Z,99794.03
2022-11-17T15:29:01.151Z,99795.13
2022-11-17T15:31:29.100Z,99799.47
2022-11-17T15:33:56.491Z,99791.09
2022-11-17T15:36:25.402Z,99786.84
2022-11-17T15:38:53.949Z,99784.63
2022-11-17T15:41:21.383Z,99787.22
2022-11-17T15:43:48.919Z,99796.88
2022-11-17T15:46:18.208Z,99800.59
2022-11-17T15:48:47.217Z,99788.94
2022-11-17T15:51:16.775Z,99793.00
2022-11-17T15:53:47.233Z,99796.78
2022-11-17T15:56:16.778Z,99798.09
2022-11-17T15:58:44.577Z,99786.31
2022-11-17T16:01:14.035Z,99796.53
2022-11-17T16:03:42.844Z,99793.69
2022-11-17T16:06:11.009Z,99793.41
2022-11-17T16:08:39.415Z,99787.06
2022-11-17T16:11:10.359Z,99798.47
2022-11-17T16:13:38.876Z,99796.66
2022-11-17T16:16:07.416Z,99788.34
2022-11-17T16:18:37.554Z,99788.66
2022-11-17T16:21:06.751Z,99788.09
2022-11-17T16:23:38.633Z,99799.22
2022-11-17T16:26:06.218Z,99790.22
2022-11-17T16:28:35.070Z,99785.38
2022-11-17T16:31:13.212Z,99789.81
2022-11-17T16:33:40.664Z,99785.63
2022-11-17T16:36:09.319Z,99781.97
2022-11-17T16:38:42.318Z,99774.66
2022-11-17T16:41:13.260Z,99782.88
2022-11-17T16:43:44.713Z,99780.00
2022-11-17T16:46:16.927Z,99787.41
2022-11-17T16:48:44.311Z,99793.28
2022-11-17T16:51:11.698Z,99779.84
2022-11-17T16:53:39.089Z,99777.72
2022-11-17T16:56:08.302Z,99774.75
2022-11-17T16:58:36.232Z,99777.56
2022-11-17T17:01:12.673Z,99779.72
2022-11-17T17:03:41.438Z,99781.06
2022-11-17T17:06:10.844Z,99786.22
2022-11-17T17:08:38.621Z,99788.81
2022-11-17T17:11:07.948Z,99781.06
2022-11-17T17:13:36.403Z,99792.16
2022-11-17T17:16:04.617Z,99800.03
2022-11-17T17:18:33.821Z,99790.09
2022-11-17T17:21:01.501Z,99781.84
2022-11-17T17:23:29.584Z,99790.84
2022-11-17T17:26:04.798Z,99800.47
2022-11-17T17:28:32.864Z,99792.34
2022-11-17T17:31:00.637Z,99796.59
2022-11-17T17:33:28.571Z,99789.34
2022-11-17T17:36:02.354Z,99792.22
2022-11-17T17:38:29.818Z,99795.50
2022-11-17T17:40:57.307Z,99803.09
2022-11-17T17:43:24.730Z,99794.41
2022-11-17T17:45:53.790Z,99797.63
2022-11-17T17:48:21.170Z,99793.38
2022-11-17T17:50:49.146Z,99809.25
2022-11-17T17:53:17.863Z,99804.16
2022-11-17T17:55:45.249Z,99802.09
2022-11-17T17:58:12.653Z,99797.59
2022-11-17T18:00:40.158Z,99811.38
2022-11-17T18:03:07.606Z,99806.56
2022-11-17T18:05:35.020Z,99810.56
2022-11-17T18:08:04.684Z,99803.56
2022-11-17T18:10:33.402Z,99803.38
2022-11-17T18:13:00.788Z,99798.22
2022-11-17T18:15:28.452Z,99801.78
2022-11-17T18:17:55.816Z,99804.81
2022-11-17T18:20:23.507Z,99808.97
2022-11-17T18:22:50.859Z,99801.13
2022-11-17T18:25:18.265Z,99790.78
2022-11-17T18:27:46.946Z,99796.13
2022-11-17T18:30:14.573Z,99799.16
2022-11-17T18:32:41.964Z,99802.53
2022-11-17T18:35:09.780Z,99806.28
2022-11-17T18:37:37.146Z,99802.56
2022-11-17T18:40:05.100Z,99818.53
2022-11-17T18:42:33.499Z,99811.50
2022-11-17T18:45:02.198Z,99812.97
2022-11-17T18:47:29.744Z,99817.72
2022-11-17T18:49:57.176Z,99814.59
2022-11-17T18:52:28.594Z,99818.16
2022-11-17T18:54:58.733Z,99811.81
2022-11-17T18:57:26.092Z,99808.78
2022-11-17T18:59:53.451Z,99823.38
2022-11-17T19:02:22.149Z,99807.81
2022-11-17T19:04:49.512Z,99828.31
2022-11-17T19:07:17.048Z,99822.06
2022-11-17T19:09:44.455Z,99829.44
2022-11-17T19:12:12.479Z,99822.53
2022-11-17T19:14:39.850Z,99808.47
2022-11-17T19:17:07.811Z,99821.84
2022-11-17T19:19:36.695Z,99823.56
2022-11-17T19:22:04.456Z,99830.97
2022-11-17T19:24:31.920Z,99817.50
2022-11-17T19:26:59.413Z,99819.19
2022-11-17T19:29:26.801Z,99810.25
2022-11-17T19:31:54.623Z,99818.53
2022-11-17T19:34:22.111Z,99827.56
2022-11-17T19:36:50.829Z,99826.41
2022-11-17T19:39:18.537Z,99824.69
2022-11-17T19:41:47.626Z,99831.59
2022-11-17T19:44:15.159Z,99833.59
2022-11-17T19:46:43.258Z,99830.22
2022-11-17T19:49:12.774Z,99837.47
2022-11-17T19:51:41.157Z,99834.50
2022-11-17T19:54:13.299Z,99832.88
2022-11-17T19:56:40.955Z,99840.38
2022-11-17T19:59:13.951Z,99843.00
2022-11-17T20:01:43.617Z,99849.16
2022-11-17T20:04:11.173Z,99844.91
2022-11-17T20:06:39.860Z,99842.28
2022-11-17T20:09:08.994Z,99851.53
2022-11-17T20:11:38.014Z,99855.47
2022-11-17T20:14:06.236Z,99850.34
2022-11-17T20:16:34.511Z,99843.78
2022-11-17T20:19:02.999Z,99848.16
2022-11-17T20:21:31.840Z,99849.63
2022-11-17T20:24:01.078Z,99857.94
2022-11-17T20:26:30.897Z,99853.72
2022-11-17T20:29:00.511Z,99843.22
2022-11-17T20:31:29.943Z,99851.66
2022-11-17T20:34:00.545Z,99848.41
2022-11-17T20:36:29.100Z,99853.84
2022-11-17T20:38:58.009Z,99853.34
2022-11-17T20:41:26.165Z,99854.09
2022-11-17T20:43:55.436Z,99852.22
2022-11-17T20:46:26.574Z,99859.13
2022-11-17T20:48:54.556Z,99862.94
2022-11-17T20:51:23.469Z,99856.81
2022-11-17T20:53:54.506Z,99858.66
2022-11-17T20:56:21.965Z,99865.66
2022-11-17T20:58:50.177Z,99859.97
2022-11-17T21:01:19.664Z,99862.00
2022-11-17T21:03:49.354Z,99858.66
2022-11-17T21:06:18.299Z,99863.59
2022-11-17T21:08:47.962Z,99866.06
2022-11-17T21:11:37.742Z,99867.88
2022-11-17T21:14:06.894Z,99859.06
2022-11-17T21:16:38.376Z,99863.97
2022-11-17T21:19:12.074Z,99872.06
2022-11-17T21:21:39.762Z,99861.94
2022-11-17T21:24:07.885Z,99865.94
2022-11-17T21:26:35.590Z,99861.22
2022-11-17T21:29:06.693Z,99866.69
2022-11-17T21:31:34.850Z,99875.44
2022-11-17T21:34:05.189Z,99862.44
2022-11-17T21:36:35.677Z,99870.53
2022-11-17T21:39:03.171Z,99872.63
2022-11-17T21:41:38.589Z,99875.13
2022-11-17T21:44:06.627Z,99882.19
2022-11-17T21:46:37.728Z,99874.75
2022-11-17T21:49:05.317Z,99878.59
2022-11-17T21:51:38.194Z,99870.94
2022-11-17T21:54:08.358Z,99871.94
2022-11-17T21:56:42.606Z,99879.50
2022-11-17T21:59:12.870Z,99885.25
2022-11-17T22:01:40.869Z,99892.81
2022-11-17T22:04:08.350Z,99886.31
2022-11-17T22:06:39.332Z,99891.91
2022-11-17T22:09:06.842Z,99886.44
2022-11-17T22:11:37.784Z,99897.50
2022-11-17T22:14:08.086Z,99896.34
2022-11-17T22:16:36.168Z,99899.47
2022-11-17T22:19:03.901Z,99903.97
2022-11-17T22:21:31.320Z,99893.63
2022-11-17T22:24:00.564Z,99908.88
2022-11-17T22:26:28.083Z,99898.47
2022-11-17T22:28:56.837Z,99891.31
2022-11-17T22:31:24.819Z,99889.78
2022-11-17T22:33:52.400Z,99893.94
2022-11-17T22:36:20.607Z,99888.31
2022-11-17T22:38:51.221Z,99891.13
2022-11-17T22:41:21.612Z,99888.03
2022-11-17T22:43:50.664Z,99900.63
2022-11-17T22:46:19.294Z,99900.22
2022-11-17T22:48:47.136Z,99894.72
2022-11-17T22:51:35.394Z,99893.78
2022-11-17T22:54:02.798Z,99909.56
2022-11-17T22:56:31.863Z,99904.41
2022-11-17T22:58:59.948Z,99908.94
2022-11-17T23:01:27.780Z,99912.16
2022-11-17T23:03:55.339Z,99914.84
2022-11-17T23:06:24.134Z,99910.72
2022-11-17T23:08:51.699Z,99915.16
2022-11-17T23:11:36.486Z,99908.63
2022-11-17T23:14:07.770Z,99900.63
2022-11-17T23:16:35.266Z,99906.88
2022-11-17T23:19:02.694Z,99913.00
2022-11-17T23:21:30.293Z,99919.41
2022-11-17T23:23:57.809Z,99908.25
2022-11-17T23:26:25.227Z,99908.78
2022-11-17T23:28:52.857Z,99905.69
2022-11-17T23:31:21.924Z,99925.56
2022-11-17T23:33:49.671Z,99909.72
2022-11-17T23:36:19.186Z,99914.63
2022-11-17T23:38:47.038Z,99902.09
2022-11-17T23:41:17.326Z,99899.00
2022-11-17T23:43:44.776Z,99916.78
2022-11-17T23:46:15.113Z,99929.59
2022-11-17T23:48:44.612Z,99926.69
2022-11-17T23:51:13.951Z,99924.06
2022-11-17T23:53:41.985Z,99933.63
2022-11-17T23:56:10.373Z,99939.75
2022-11-17T23:58:38.115Z,99941.69
